createdAt,value
2019-02-14T00:01:15.116Z,3.90
2019-02-14T00:03:45.645Z,3.90
2019-02-14T00:06:16.121Z,3.90
2019-02-14T00:08:46.601Z,3.80
2019-02-14T00:11:17.080Z,3.70
2019-02-14T00:13:47.558Z,3.70
2019-02-14T00:16:18.027Z,3.60
2019-02-14T00:18:48.542Z,3.60
2019-02-14T00:21:19.058Z,3.50
2019-02-14T00:23:49.469Z,3.50
2019-02-14T00:26:19.998Z,3.40
2019-02-14T00:28:50.435Z,3.30
2019-02-14T00:31:20.946Z,3.30
2019-02-14T00:33:51.438Z,3.20
2019-02-14T00:36:21.955Z,3.20
2019-02-14T00:38:52.555Z,3.20
2019-02-14T00:41:22.970Z,3.10
2019-02-14T00:43:53.399Z,3.10
2019-02-14T00:46:23.956Z,3.10
2019-02-14T00:48:54.559Z,3.20
2019-02-14T00:51:25.088Z,3.20
2019-02-14T00:53:55.515Z,3.30
2019-02-14T00:56:26.146Z,3.20
2019-02-14T00:58:56.582Z,3.20
2019-02-14T01:01:27.206Z,3.20
2019-02-14T01:03:57.666Z,3.20
2019-02-14T01:06:28.240Z,3.30
2019-02-14T01:08:58.794Z,3.40
2019-02-14T01:11:29.224Z,3.40
2019-02-14T01:14:00.673Z,3.50
2019-02-14T01:16:31.119Z,3.60
2019-02-14T01:19:01.588Z,3.60
2019-02-14T01:21:32.129Z,3.50
2019-02-14T01:24:02.591Z,3.60
2019-02-14T01:26:33.114Z,3.60
2019-02-14T01:29:03.644Z,3.60
2019-02-14T01:31:34.173Z,3.60
2019-02-14T01:34:04.836Z,3.60
2019-02-14T01:36:35.486Z,3.50
2019-02-14T01:39:06.682Z,3.50
2019-02-14T01:41:37.159Z,3.40
2019-02-14T01:44:07.643Z,3.30
2019-02-14T01:46:38.374Z,3.20
2019-02-14T01:49:08.865Z,3.20
2019-02-14T01:51:39.379Z,3.20
2019-02-14T01:54:09.883Z,3.20
2019-02-14T01:56:40.598Z,3.20
2019-02-14T01:59:11.227Z,3.20
2019-02-14T02:01:41.654Z,3.20
2019-02-14T02:04:12.084Z,3.30
2019-02-14T02:06:42.506Z,3.40
2019-02-14T02:09:12.932Z,3.40
2019-02-14T02:11:43.787Z,3.40
2019-02-14T02:14:14.210Z,3.50
2019-02-14T02:16:44.666Z,3.50
2019-02-14T02:19:15.332Z,3.50
2019-02-14T02:21:45.831Z,3.40
2019-02-14T02:24:16.314Z,3.30
2019-02-14T02:26:46.746Z,3.30
2019-02-14T02:29:17.234Z,3.20
2019-02-14T02:31:47.856Z,3.20
2019-02-14T02:34:18.328Z,3.10
2019-02-14T02:36:48.806Z,3.00
2019-02-14T02:39:19.337Z,2.90
2019-02-14T02:41:49.922Z,2.80
2019-02-14T02:44:20.348Z,2.70
2019-02-14T02:46:50.773Z,2.60
2019-02-14T02:49:21.198Z,2.60
2019-02-14T02:51:51.728Z,2.50
2019-02-14T02:54:22.263Z,2.50
2019-02-14T02:56:52.891Z,2.50
2019-02-14T02:59:23.521Z,2.40
2019-02-14T03:01:53.953Z,2.40
2019-02-14T03:04:25.400Z,2.40
2019-02-14T03:06:55.827Z,2.40
2019-02-14T03:09:26.253Z,2.40
2019-02-14T03:11:56.679Z,2.30
2019-02-14T03:14:28.437Z,2.20
2019-02-14T03:16:58.872Z,2.20
2019-02-14T03:19:29.291Z,2.10
2019-02-14T03:21:59.719Z,2.10
2019-02-14T03:24:31.215Z,2.10
2019-02-14T03:27:01.699Z,2.10
2019-02-14T03:29:32.435Z,2.10
2019-02-14T03:32:02.884Z,2.00
2019-02-14T03:34:33.287Z,2.00
2019-02-14T03:37:03.759Z,2.00
2019-02-14T03:39:34.296Z,1.90
2019-02-14T03:42:04.773Z,1.90
2019-02-14T03:44:35.406Z,1.90
2019-02-14T03:47:05.842Z,1.80
2019-02-14T03:49:36.259Z,1.80
2019-02-14T03:52:06.780Z,1.70
2019-02-14T03:54:37.266Z,1.70
2019-02-14T03:57:07.744Z,1.70
2019-02-14T03:59:38.220Z,1.60
2019-02-14T04:02:08.701Z,1.60
2019-02-14T04:04:39.127Z,1.60
2019-02-14T04:07:09.555Z,1.60
2019-02-14T04:09:39.981Z,1.60
2019-02-14T04:12:10.538Z,1.60
2019-02-14T04:14:40.976Z,1.50
2019-02-14T04:17:11.539Z,1.50
2019-02-14T04:19:41.999Z,1.50
2019-02-14T04:22:12.423Z,1.50
2019-02-14T04:24:42.851Z,1.50
2019-02-14T04:27:13.359Z,1.50
2019-02-14T04:29:43.812Z,1.60
2019-02-14T04:32:15.263Z,1.70
2019-02-14T04:34:45.864Z,1.70
2019-02-14T04:37:16.323Z,1.70
2019-02-14T04:39:46.787Z,1.70
2019-02-14T04:42:17.461Z,1.80
2019-02-14T04:44:47.916Z,1.80
2019-02-14T04:47:18.334Z,1.90
2019-02-14T04:49:48.768Z,2.00
2019-02-14T04:52:19.296Z,2.00
2019-02-14T04:54:49.753Z,2.10
2019-02-14T04:57:20.679Z,2.20
2019-02-14T04:59:51.188Z,2.20
2019-02-14T05:02:21.615Z,2.30
2019-02-14T05:04:52.043Z,2.30
2019-02-14T05:07:22.465Z,2.30
2019-02-14T05:09:52.894Z,2.30
2019-02-14T05:12:26.168Z,2.30
2019-02-14T05:14:56.727Z,2.30
2019-02-14T05:17:27.147Z,2.30
2019-02-14T05:19:57.576Z,2.30
2019-02-14T05:22:28.100Z,2.20
2019-02-14T05:24:58.833Z,2.30
2019-02-14T05:27:29.282Z,2.20
2019-02-14T05:29:59.746Z,2.20
2019-02-14T05:32:30.319Z,2.20
2019-02-14T05:35:00.771Z,2.10
2019-02-14T05:37:31.483Z,2.10
2019-02-14T05:40:01.876Z,2.00
2019-02-14T05:42:32.491Z,1.90
2019-02-14T05:45:02.965Z,1.90
2019-02-14T05:47:33.394Z,1.90
2019-02-14T05:50:03.822Z,1.90
2019-02-14T05:52:34.247Z,1.80
2019-02-14T05:55:04.950Z,1.80
2019-02-14T05:57:35.722Z,1.80
2019-02-14T06:00:06.808Z,1.80
2019-02-14T06:02:37.606Z,1.70
2019-02-14T06:05:08.225Z,1.60
2019-02-14T06:07:38.735Z,1.50
2019-02-14T06:10:09.510Z,1.50
2019-02-14T06:12:40.018Z,1.30
2019-02-14T06:15:10.957Z,1.30
2019-02-14T06:17:41.386Z,1.20
2019-02-14T06:20:12.020Z,1.10
2019-02-14T06:22:42.549Z,1.00
2019-02-14T06:25:13.135Z,1.00
2019-02-14T06:27:43.810Z,0.90
2019-02-14T06:30:14.747Z,0.80
2019-02-14T06:32:46.201Z,0.80
2019-02-14T06:35:16.674Z,0.80
2019-02-14T06:37:47.156Z,0.90
2019-02-14T06:40:17.633Z,0.90
2019-02-14T06:42:48.258Z,1.10
2019-02-14T06:45:18.647Z,1.10
2019-02-14T06:47:49.067Z,1.30
2019-02-14T06:50:19.495Z,1.30
2019-02-14T06:52:50.947Z,1.40
2019-02-14T06:55:21.378Z,1.50
2019-02-14T06:57:52.004Z,1.40
2019-02-14T07:00:22.430Z,1.40
2019-02-14T07:02:52.867Z,1.40
2019-02-14T07:05:23.438Z,1.30
2019-02-14T07:07:53.858Z,1.20
2019-02-14T07:10:24.480Z,1.10
2019-02-14T07:12:55.046Z,1.10
2019-02-14T07:15:25.567Z,1.10
2019-02-14T07:17:56.051Z,1.00
2019-02-14T07:20:26.469Z,1.10
2019-02-14T07:22:57.046Z,1.20
2019-02-14T07:25:27.630Z,1.20
2019-02-14T07:27:58.066Z,1.30
2019-02-14T07:30:28.627Z,1.20
2019-02-14T07:32:59.119Z,1.20
2019-02-14T07:35:29.638Z,1.10
2019-02-14T07:38:00.362Z,1.10
2019-02-14T07:40:30.844Z,1.10
2019-02-14T07:43:01.475Z,1.20
2019-02-14T07:45:32.015Z,1.50
2019-02-14T07:48:02.490Z,1.90
2019-02-14T07:50:33.122Z,2.40
2019-02-14T07:53:03.583Z,3.30
2019-02-14T07:55:34.150Z,4.20
2019-02-14T07:58:04.811Z,4.90
2019-02-14T08:00:35.341Z,5.60
2019-02-14T08:03:05.878Z,6.30
2019-02-14T08:05:36.266Z,7.00
2019-02-14T08:08:06.779Z,7.60
2019-02-14T08:10:37.331Z,8.00
2019-02-14T08:13:07.809Z,8.40
2019-02-14T08:15:38.209Z,8.80
2019-02-14T08:18:10.175Z,9.20
2019-02-14T08:20:40.670Z,9.80
2019-02-14T08:23:11.141Z,10.40
2019-02-14T08:25:41.557Z,10.50
2019-02-14T08:28:11.983Z,10.70
2019-02-14T08:30:42.410Z,10.60
2019-02-14T08:33:12.842Z,10.10
2019-02-14T08:35:43.266Z,10.00
2019-02-14T08:38:13.696Z,9.70
2019-02-14T08:40:44.171Z,9.30
2019-02-14T08:43:14.691Z,9.30
2019-02-14T08:45:45.179Z,9.10
2019-02-14T08:48:15.677Z,8.90
2019-02-14T08:50:46.174Z,8.70
2019-02-14T08:53:16.664Z,8.70
2019-02-14T08:55:47.194Z,8.60
2019-02-14T08:58:17.927Z,8.60
2019-02-14T09:00:48.359Z,8.40
2019-02-14T09:03:19.881Z,8.40
2019-02-14T09:05:50.437Z,8.70
2019-02-14T09:08:20.864Z,9.00
2019-02-14T09:10:51.340Z,9.10
2019-02-14T09:13:21.819Z,9.30
2019-02-14T09:15:52.248Z,10.10
2019-02-14T09:18:22.880Z,11.50
2019-02-14T09:20:53.313Z,12.80
2019-02-14T09:23:24.762Z,13.90
2019-02-14T09:25:55.188Z,14.20
2019-02-14T09:28:25.611Z,14.10
2019-02-14T09:30:56.040Z,13.90
2019-02-14T09:33:27.796Z,13.70
2019-02-14T09:35:58.363Z,13.40
2019-02-14T09:38:28.957Z,14.30
2019-02-14T09:40:59.427Z,15.20
2019-02-14T09:43:30.255Z,16.20
2019-02-14T09:46:00.765Z,17.50
2019-02-14T09:48:31.366Z,19.00
2019-02-14T09:51:01.863Z,20.50
2019-02-14T09:53:32.421Z,21.50
2019-02-14T09:56:02.872Z,22.30
2019-02-14T09:58:33.498Z,23.40
2019-02-14T10:01:04.043Z,24.10
2019-02-14T10:03:34.589Z,24.20
2019-02-14T10:06:05.117Z,23.20
2019-02-14T10:08:35.519Z,22.40
2019-02-14T10:11:05.945Z,22.40
2019-02-14T10:13:37.548Z,22.10
2019-02-14T10:16:08.023Z,21.60
2019-02-14T10:18:38.659Z,21.60
2019-02-14T10:21:08.996Z,21.70
2019-02-14T10:23:39.509Z,22.00
2019-02-14T10:26:10.047Z,22.30
2019-02-14T10:28:40.470Z,21.90
2019-02-14T10:31:10.895Z,22.40
2019-02-14T10:33:41.436Z,22.90
2019-02-14T10:36:11.864Z,23.20
2019-02-14T10:38:42.483Z,23.30
2019-02-14T10:41:13.102Z,23.50
2019-02-14T10:43:48.798Z,22.80
2019-02-14T10:46:15.711Z,23.30
2019-02-14T10:48:46.442Z,23.40
2019-02-14T10:51:17.002Z,24.30
2019-02-14T10:53:47.811Z,24.40
2019-02-14T10:56:18.242Z,24.10
2019-02-14T10:58:48.867Z,24.80
2019-02-14T11:01:19.320Z,25.90
2019-02-14T11:03:49.926Z,25.80
2019-02-14T11:06:20.360Z,26.40
2019-02-14T11:08:50.777Z,26.60
2019-02-14T11:11:21.206Z,26.00
2019-02-14T11:13:52.656Z,26.30
2019-02-14T11:16:23.137Z,27.40
2019-02-14T11:18:53.639Z,26.80
2019-02-14T11:21:24.151Z,26.40
2019-02-14T11:23:54.742Z,26.10
2019-02-14T11:26:25.210Z,27.10
2019-02-14T11:28:56.978Z,26.60
2019-02-14T11:31:27.395Z,26.70
2019-02-14T11:33:58.027Z,27.30
2019-02-14T11:36:28.490Z,29.50
2019-02-14T11:38:58.974Z,31.00
2019-02-14T11:41:29.448Z,31.20
2019-02-14T11:44:00.240Z,29.30
2019-02-14T11:46:30.973Z,27.80
2019-02-14T11:49:01.573Z,27.30
2019-02-14T11:51:32.070Z,28.70
2019-02-14T11:54:02.733Z,29.00
2019-02-14T11:56:33.200Z,29.40
2019-02-14T11:59:03.824Z,29.80
2019-02-14T12:01:34.255Z,29.70
2019-02-14T12:04:04.746Z,29.50
2019-02-14T12:06:35.309Z,29.70
2019-02-14T12:09:07.558Z,30.60
2019-02-14T12:11:38.007Z,30.90
2019-02-14T12:14:09.459Z,31.20
2019-02-14T12:16:39.884Z,32.30
2019-02-14T12:19:10.361Z,32.00
2019-02-14T12:21:40.783Z,31.50
2019-02-14T12:24:11.275Z,31.10
2019-02-14T12:26:41.696Z,31.70
2019-02-14T12:29:12.126Z,30.60
2019-02-14T12:31:42.554Z,30.80
2019-02-14T12:34:12.977Z,31.20
2019-02-14T12:36:43.443Z,30.30
2019-02-14T12:39:14.004Z,30.00
2019-02-14T12:41:44.512Z,29.80
2019-02-14T12:44:15.103Z,30.50
2019-02-14T12:46:45.523Z,29.80
2019-02-14T12:49:16.357Z,29.90
2019-02-14T12:51:46.816Z,30.30
2019-02-14T12:54:17.315Z,29.80
2019-02-14T12:56:50.814Z,29.80
2019-02-14T12:59:21.450Z,29.10
2019-02-14T13:01:51.871Z,28.30
2019-02-14T13:04:23.320Z,27.90
2019-02-14T13:06:53.851Z,27.80
2019-02-14T13:09:24.408Z,27.10
2019-02-14T13:11:55.013Z,26.90
2019-02-14T13:14:25.441Z,27.30
2019-02-14T13:16:55.868Z,27.60
2019-02-14T13:19:26.294Z,28.10
2019-02-14T13:21:57.028Z,28.10
2019-02-14T13:24:27.497Z,27.00
2019-02-14T13:26:58.055Z,27.50
2019-02-14T13:29:28.514Z,27.40
2019-02-14T13:31:58.940Z,27.30
2019-02-14T13:34:29.370Z,27.60
2019-02-14T13:37:02.102Z,27.30
2019-02-14T13:39:32.689Z,27.30
2019-02-14T13:42:03.397Z,28.10
2019-02-14T13:44:33.916Z,27.90
2019-02-14T13:47:04.369Z,27.70
2019-02-14T13:49:34.795Z,27.40
2019-02-14T13:52:05.329Z,27.50
2019-02-14T13:54:35.720Z,27.60
2019-02-14T13:57:06.492Z,28.30
2019-02-14T13:59:36.915Z,28.70
2019-02-14T14:02:07.446Z,29.50
2019-02-14T14:04:37.859Z,28.20
2019-02-14T14:07:08.363Z,28.40
2019-02-14T14:09:39.074Z,28.10
2019-02-14T14:12:09.554Z,28.20
2019-02-14T14:14:39.980Z,27.10
2019-02-14T14:17:10.423Z,28.00
2019-02-14T14:19:40.919Z,27.10
2019-02-14T14:22:11.473Z,26.90
2019-02-14T14:24:42.002Z,27.90
2019-02-14T14:27:12.460Z,29.00
2019-02-14T14:29:42.958Z,29.90
2019-02-14T14:32:13.696Z,29.50
2019-02-14T14:34:44.214Z,29.80
2019-02-14T14:37:14.658Z,29.70
2019-02-14T14:39:47.714Z,29.70
2019-02-14T14:42:52.382Z,29.20
2019-02-14T14:45:35.799Z,29.60
2019-02-14T14:48:06.226Z,30.40
2019-02-14T14:50:36.655Z,30.60
2019-02-14T14:53:08.132Z,31.00
2019-02-14T14:55:38.793Z,30.90
2019-02-14T14:58:09.272Z,31.50
2019-02-14T15:00:40.000Z,31.70
2019-02-14T15:03:11.456Z,31.00
2019-02-14T15:05:41.980Z,29.70
2019-02-14T15:08:12.515Z,28.80
2019-02-14T15:10:43.022Z,27.40
2019-02-14T15:13:13.466Z,26.90
2019-02-14T15:15:44.098Z,26.30
2019-02-14T15:18:14.729Z,27.30
2019-02-14T15:20:45.223Z,27.90
2019-02-14T15:23:15.738Z,28.20
2019-02-14T15:25:46.215Z,28.40
2019-02-14T15:28:16.721Z,28.70
2019-02-14T15:30:47.173Z,28.60
2019-02-14T15:33:17.598Z,28.30
2019-02-14T15:35:48.027Z,27.70
2019-02-14T15:38:18.481Z,28.10
2019-02-14T15:40:48.879Z,28.70
2019-02-14T15:43:19.307Z,28.40
2019-02-14T15:45:49.774Z,27.60
2019-02-14T15:48:20.293Z,26.60
2019-02-14T15:50:51.473Z,25.60
2019-02-14T15:53:23.887Z,25.80
2019-02-14T15:55:54.315Z,24.90
2019-02-14T15:58:25.109Z,23.80
2019-02-14T16:00:55.699Z,23.80
2019-02-14T16:03:26.481Z,24.20
2019-02-14T16:05:56.938Z,25.00
2019-02-14T16:08:27.389Z,24.90
2019-02-14T16:10:57.782Z,23.90
2019-02-14T16:13:29.201Z,24.00
2019-02-14T16:16:00.590Z,23.80
2019-02-14T16:18:31.500Z,23.80
2019-02-14T16:21:03.530Z,23.30
2019-02-14T16:23:34.339Z,22.60
2019-02-14T16:26:04.867Z,23.00
2019-02-14T16:28:36.136Z,23.00
2019-02-14T16:31:07.461Z,22.20
2019-02-14T16:33:38.947Z,21.70
2019-02-14T16:36:09.539Z,21.10
2019-02-14T16:38:39.967Z,21.00
2019-02-14T16:41:10.288Z,21.30
2019-02-14T16:43:40.682Z,21.30
2019-02-14T16:46:11.221Z,21.30
2019-02-14T16:48:41.670Z,20.70
2019-02-14T16:51:12.098Z,19.50
2019-02-14T16:53:42.630Z,18.00
2019-02-14T16:56:13.360Z,16.90
2019-02-14T16:58:43.912Z,15.80
2019-02-14T17:01:14.318Z,15.20
2019-02-14T17:03:44.999Z,14.60
2019-02-14T17:06:15.403Z,14.20
2019-02-14T17:08:45.807Z,13.90
2019-02-14T17:11:16.486Z,13.70
2019-02-14T17:13:46.968Z,13.40
2019-02-14T17:16:17.391Z,13.20
2019-02-14T17:18:47.818Z,13.00
2019-02-14T17:21:18.315Z,12.80
2019-02-14T17:23:48.951Z,12.50
2019-02-14T17:26:19.421Z,12.40
2019-02-14T17:28:50.040Z,12.20
2019-02-14T17:31:20.470Z,12.10
2019-02-14T17:33:51.927Z,11.90
2019-02-14T17:36:22.430Z,11.80
2019-02-14T17:38:52.802Z,11.60
2019-02-14T17:41:23.229Z,11.50
2019-02-14T17:43:53.740Z,11.40
2019-02-14T17:46:24.198Z,11.30
2019-02-14T17:48:54.736Z,11.10
2019-02-14T17:51:25.215Z,11.10
2019-02-14T17:53:57.223Z,10.90
2019-02-14T17:56:27.751Z,10.80
2019-02-14T17:58:58.272Z,10.70
2019-02-14T18:01:28.762Z,10.60
2019-02-14T18:03:59.400Z,10.60
2019-02-14T18:06:30.142Z,10.50
2019-02-14T18:09:00.840Z,10.40
2019-02-14T18:11:31.259Z,10.30
2019-02-14T18:14:01.724Z,10.20
2019-02-14T18:16:32.144Z,10.20
2019-02-14T18:19:02.784Z,10.10
2019-02-14T18:21:33.412Z,10.00
2019-02-14T18:24:04.142Z,9.90
2019-02-14T18:26:34.482Z,9.80
2019-02-14T18:29:05.367Z,9.80
2019-02-14T18:31:35.906Z,9.80
2019-02-14T18:34:06.361Z,9.70
2019-02-14T18:36:36.788Z,9.70
2019-02-14T18:39:08.751Z,9.60
2019-02-14T18:41:39.294Z,9.60
2019-02-14T18:44:09.819Z,9.50
2019-02-14T18:46:40.283Z,9.40
2019-02-14T18:49:10.816Z,9.30
2019-02-14T18:51:41.400Z,9.30
2019-02-14T18:54:12.859Z,9.20
2019-02-14T18:56:43.558Z,9.20
2019-02-14T18:59:14.023Z,9.10
2019-02-14T19:01:44.747Z,9.10
2019-02-14T19:04:15.379Z,9.00
2019-02-14T19:06:45.807Z,8.90
2019-02-14T19:09:16.434Z,8.80
2019-02-14T19:11:47.171Z,8.80
2019-02-14T19:14:40.336Z,8.70
2019-02-14T19:17:10.728Z,8.60
2019-02-14T19:19:41.186Z,8.60
2019-02-14T19:22:11.614Z,8.50
2019-02-14T19:24:42.045Z,8.40
2019-02-14T19:27:12.464Z,8.30
2019-02-14T19:29:42.907Z,8.20
2019-02-14T19:32:14.594Z,8.20
2019-02-14T19:34:45.211Z,8.20
2019-02-14T19:37:15.821Z,8.20
2019-02-14T19:39:46.403Z,8.20
2019-02-14T19:42:16.883Z,8.20
2019-02-14T19:44:47.371Z,8.30
2019-02-14T19:47:17.929Z,8.30
2019-02-14T19:49:48.407Z,8.20
2019-02-14T19:52:18.895Z,8.20
2019-02-14T19:54:49.317Z,8.10
2019-02-14T19:57:19.741Z,8.00
2019-02-14T19:59:50.244Z,7.90
2019-02-14T20:02:20.739Z,7.90
2019-02-14T20:04:52.296Z,7.90
2019-02-14T20:07:22.881Z,7.90
2019-02-14T20:09:53.307Z,7.80
2019-02-14T20:12:23.797Z,7.80
2019-02-14T20:14:54.310Z,7.80
2019-02-14T20:17:24.822Z,7.80
2019-02-14T20:19:55.425Z,7.80
2019-02-14T20:22:25.851Z,7.70
2019-02-14T20:24:56.962Z,7.60
2019-02-14T20:27:27.429Z,7.60
2019-02-14T20:29:57.923Z,7.60
2019-02-14T20:32:28.450Z,7.50
2019-02-14T20:35:01.658Z,7.50
2019-02-14T20:37:31.351Z,7.50
2019-02-14T20:40:02.110Z,7.50
2019-02-14T20:42:33.088Z,7.50
2019-02-14T20:45:04.068Z,7.40
2019-02-14T20:47:35.345Z,7.30
2019-02-14T20:50:06.528Z,7.20
2019-02-14T20:52:37.460Z,7.20
2019-02-14T20:55:10.121Z,7.10
2019-02-14T20:57:40.553Z,7.10
2019-02-14T21:00:30.625Z,7.10
2019-02-14T21:03:01.382Z,7.00
2019-02-14T21:05:33.213Z,7.00
2019-02-14T21:08:03.875Z,7.00
2019-02-14T21:10:34.688Z,7.10
2019-02-14T21:13:05.314Z,7.10
2019-02-14T21:15:35.872Z,7.10
2019-02-14T21:18:06.672Z,7.10
2019-02-14T21:20:42.575Z,7.10
2019-02-14T21:23:13.646Z,7.20
2019-02-14T21:25:44.220Z,7.10
2019-02-14T21:28:14.695Z,7.20
2019-02-14T21:30:45.288Z,7.20
2019-02-14T21:33:15.749Z,7.20
2019-02-14T21:35:46.399Z,7.20
2019-02-14T21:38:16.969Z,7.20
2019-02-14T21:40:47.539Z,7.30
2019-02-14T21:43:18.203Z,7.30
2019-02-14T21:45:48.727Z,7.40
2019-02-14T21:48:19.903Z,7.40
2019-02-14T21:50:50.554Z,7.40
2019-02-14T21:53:21.109Z,7.40
2019-02-14T21:55:51.621Z,7.30
2019-02-14T21:58:22.244Z,7.30
2019-02-14T22:00:52.781Z,7.20
2019-02-14T22:03:23.484Z,7.20
2019-02-14T22:05:54.188Z,7.10
2019-02-14T22:08:24.776Z,7.00
2019-02-14T22:10:55.204Z,7.00
2019-02-14T22:13:50.559Z,6.90
2019-02-14T22:16:21.287Z,6.80
2019-02-14T22:18:51.763Z,6.70
2019-02-14T22:21:22.189Z,6.60
2019-02-14T22:23:52.819Z,6.60
2019-02-14T22:26:23.136Z,6.50
2019-02-14T22:28:53.674Z,6.50
2019-02-14T22:31:24.093Z,6.40
2019-02-14T22:33:54.635Z,6.40
2019-02-14T22:36:25.055Z,6.30
2019-02-14T22:38:55.466Z,6.30
2019-02-14T22:41:25.895Z,6.20
2019-02-14T22:43:57.378Z,6.20
2019-02-14T22:46:27.786Z,6.20
2019-02-14T22:48:58.242Z,6.10
2019-02-14T22:51:28.803Z,6.00
2019-02-14T22:54:00.180Z,6.00
2019-02-14T22:56:30.608Z,6.00
2019-02-14T22:59:01.035Z,6.00
2019-02-14T23:01:31.465Z,5.90
2019-02-14T23:04:01.888Z,5.90
2019-02-14T23:06:34.671Z,5.90
2019-02-14T23:09:06.534Z,6.00
2019-02-14T23:11:36.967Z,6.20
2019-02-14T23:14:07.487Z,6.40
2019-02-14T23:16:37.916Z,6.60
2019-02-14T23:19:08.392Z,6.80
2019-02-14T23:21:38.884Z,7.00
2019-02-14T23:24:09.400Z,7.00
2019-02-14T23:26:39.825Z,7.10
2019-02-14T23:29:10.252Z,7.10
2019-02-14T23:31:40.678Z,7.00
2019-02-14T23:34:11.113Z,7.10
2019-02-14T23:36:41.535Z,7.10
2019-02-14T23:39:12.337Z,7.10
2019-02-14T23:41:42.799Z,7.10
2019-02-14T23:44:14.251Z,7.00
2019-02-14T23:46:44.675Z,7.00
2019-02-14T23:49:15.130Z,6.90
2019-02-14T23:51:45.679Z,6.80
2019-02-14T23:54:16.164Z,6.70
2019-02-14T23:56:46.588Z,6.60
2019-02-14T23:59:17.188Z,6.50
